sensor_id;sensor_type;location;lat;lon;timestamp;P1;durP1;ratioP1;P2;durP2;ratioP2
63218;SDS011;49320;52.512;13.448;2024-01-15T00:00:20;9.48;;;8.45;;
63218;SDS011;49320;52.512;13.448;2024-01-15T00:02:47;9.38;;;7.90;;
63218;SDS011;49320;52.512;13.448;2024-01-15T00:05:14;9.13;;;8.13;;
63218;SDS011;49320;52.512;13.448;2024-01-15T00:07:41;7.82;;;6.80;;
63218;SDS011;49320;52.512;13.448;2024-01-15T00:10:08;8.45;;;6.78;;
63218;SDS011;49320;52.512;13.448;2024-01-15T00:12:35;8.38;;;6.80;;
63218;SDS011;49320;52.512;13.448;2024-01-15T00:15:02;8.45;;;7.60;;
63218;SDS011;49320;52.512;13.448;2024-01-15T00:17:29;7.95;;;7.07;;
63218;SDS011;49320;52.512;13.448;2024-01-15T00:19:56;8.82;;;6.72;;
63218;SDS011;49320;52.512;13.448;2024-01-15T00:22:24;10.18;;;7.35;;
63218;SDS011;49320;52.512;13.448;2024-01-15T00:24:52;7.78;;;6.32;;
63218;SDS011;49320;52.512;13.448;2024-01-15T00:27:19;10.27;;;7.18;;
63218;SDS011;49320;52.512;13.448;2024-01-15T00:29:46;9.95;;;7.57;;
63218;SDS011;49320;52.512;13.448;2024-01-15T00:32:13;7.90;;;7.10;;
63218;SDS011;49320;52.512;13.448;2024-01-15T00:34:40;9.05;;;7.43;;
63218;SDS011;49320;52.512;13.448;2024-01-15T00:37:07;9.73;;;7.72;;
63218;SDS011;49320;52.512;13.448;2024-01-15T00:39:34;9.57;;;7.68;;
63218;SDS011;49320;52.512;13.448;2024-01-15T00:42:01;8.38;;;7.28;;
63218;SDS011;49320;52.512;13.448;2024-01-15T00:44:29;10.05;;;7.43;;
63218;SDS011;49320;52.512;13.448;2024-01-15T00:46:56;7.97;;;6.82;;
63218;SDS011;49320;52.512;13.448;2024-01-15T00:49:23;10.88;;;8.43;;
63218;SDS011;49320;52.512;13.448;2024-01-15T00:51:50;9.43;;;7.53;;
63218;SDS011;49320;52.512;13.448;2024-01-15T00:54:17;8.93;;;7.22;;
63218;SDS011;49320;52.512;13.448;2024-01-15T00:56:44;10.95;;;8.27;;
63218;SDS011;49320;52.512;13.448;2024-01-15T00:59:11;10.20;;;7.00;;
63218;SDS011;49320;52.512;13.448;2024-01-15T01:01:41;10.38;;;7.35;;
63218;SDS011;49320;52.512;13.448;2024-01-15T01:04:09;9.10;;;6.97;;
63218;SDS011;49320;52.512;13.448;2024-01-15T01:06:37;10.35;;;8.10;;
63218;SDS011;49320;52.512;13.448;2024-01-15T01:09:04;10.63;;;8.73;;
63218;SDS011;49320;52.512;13.448;2024-01-15T01:11:31;9.10;;;7.47;;
63218;SDS011;49320;52.512;13.448;2024-01-15T01:13:58;11.02;;;8.25;;
63218;SDS011;49320;52.512;13.448;2024-01-15T01:16:25;10.73;;;7.82;;
63218;SDS011;49320;52.512;13.448;2024-01-15T01:18:52;8.48;;;7.40;;
63218;SDS011;49320;52.512;13.448;2024-01-15T01:21:19;10.40;;;8.43;;
63218;SDS011;49320;52.512;13.448;2024-01-15T01:23:46;10.05;;;8.10;;
63218;SDS011;49320;52.512;13.448;2024-01-15T01:26:17;13.98;;;9.57;;
63218;SDS011;49320;52.512;13.448;2024-01-15T01:28:44;12.25;;;9.38;;
63218;SDS011;49320;52.512;13.448;2024-01-15T01:31:11;15.20;;;9.48;;
63218;SDS011;49320;52.512;13.448;2024-01-15T01:33:38;13.05;;;8.98;;
63218;SDS011;49320;52.512;13.448;2024-01-15T01:36:07;16.55;;;10.57;;
63218;SDS011;49320;52.512;13.448;2024-01-15T01:38:36;9.38;;;7.35;;
63218;SDS011;49320;52.512;13.448;2024-01-15T01:41:04;12.30;;;8.65;;
63218;SDS011;49320;52.512;13.448;2024-01-15T01:43:31;12.20;;;8.27;;
63218;SDS011;49320;52.512;13.448;2024-01-15T01:45:58;11.10;;;8.02;;
63218;SDS011;49320;52.512;13.448;2024-01-15T01:48:27;12.55;;;8.15;;
63218;SDS011;49320;52.512;13.448;2024-01-15T01:50:59;12.50;;;8.52;;
63218;SDS011;49320;52.512;13.448;2024-01-15T01:53:29;11.05;;;8.02;;
63218;SDS011;49320;52.512;13.448;2024-01-15T01:55:58;10.95;;;7.05;;
63218;SDS011;49320;52.512;13.448;2024-01-15T01:58:25;9.38;;;7.22;;
63218;SDS011;49320;52.512;13.448;2024-01-15T02:00:53;8.77;;;7.00;;
63218;SDS011;49320;52.512;13.448;2024-01-15T02:03:20;11.77;;;7.82;;
63218;SDS011;49320;52.512;13.448;2024-01-15T02:05:48;10.82;;;8.23;;
63218;SDS011;49320;52.512;13.448;2024-01-15T02:08:16;10.32;;;7.70;;
63218;SDS011;49320;52.512;13.448;2024-01-15T02:10:43;10.15;;;7.97;;
63218;SDS011;49320;52.512;13.448;2024-01-15T02:13:10;10.95;;;7.65;;
63218;SDS011;49320;52.512;13.448;2024-01-15T02:15:37;9.82;;;7.68;;
63218;SDS011;49320;52.512;13.448;2024-01-15T02:18:04;12.07;;;7.60;;
63218;SDS011;49320;52.512;13.448;2024-01-15T02:20:36;9.23;;;7.10;;
63218;SDS011;49320;52.512;13.448;2024-01-15T02:23:06;9.80;;;7.07;;
63218;SDS011;49320;52.512;13.448;2024-01-15T02:25:42;9.98;;;7.50;;
63218;SDS011;49320;52.512;13.448;2024-01-15T02:28:12;8.07;;;6.82;;
63218;SDS011;49320;52.512;13.448;2024-01-15T02:30:42;8.95;;;7.05;;
63218;SDS011;49320;52.512;13.448;2024-01-15T02:33:10;7.60;;;6.47;;
63218;SDS011;49320;52.512;13.448;2024-01-15T02:35:38;9.38;;;6.82;;
63218;SDS011;49320;52.512;13.448;2024-01-15T02:38:05;10.40;;;6.88;;
63218;SDS011;49320;52.512;13.448;2024-01-15T02:40:33;9.25;;;7.18;;
63218;SDS011;49320;52.512;13.448;2024-01-15T02:43:01;9.13;;;6.60;;
63218;SDS011;49320;52.512;13.448;2024-01-15T02:45:28;10.35;;;6.70;;
63218;SDS011;49320;52.512;13.448;2024-01-15T02:47:55;7.68;;;6.18;;
63218;SDS011;49320;52.512;13.448;2024-01-15T02:50:22;9.95;;;6.80;;
63218;SDS011;49320;52.512;13.448;2024-01-15T02:52:49;8.23;;;6.18;;
63218;SDS011;49320;52.512;13.448;2024-01-15T02:55:16;8.57;;;5.90;;
63218;SDS011;49320;52.512;13.448;2024-01-15T02:57:42;8.38;;;6.40;;
63218;SDS011;49320;52.512;13.448;2024-01-15T03:00:10;7.13;;;5.13;;
63218;SDS011;49320;52.512;13.448;2024-01-15T03:02:38;8.85;;;6.30;;
63218;SDS011;49320;52.512;13.448;2024-01-15T03:05:11;8.20;;;5.75;;
63218;SDS011;49320;52.512;13.448;2024-01-15T03:07:38;6.88;;;5.43;;
63218;SDS011;49320;52.512;13.448;2024-01-15T03:10:05;8.27;;;5.75;;
63218;SDS011;49320;52.512;13.448;2024-01-15T03:12:33;8.90;;;6.53;;
63218;SDS011;49320;52.512;13.448;2024-01-15T03:15:00;7.20;;;5.65;;
63218;SDS011;49320;52.512;13.448;2024-01-15T03:17:27;8.10;;;6.47;;
63218;SDS011;49320;52.512;13.448;2024-01-15T03:19:54;7.47;;;6.53;;
63218;SDS011;49320;52.512;13.448;2024-01-15T03:22:21;9.02;;;6.22;;
63218;SDS011;49320;52.512;13.448;2024-01-15T03:24:47;7.53;;;5.63;;
63218;SDS011;49320;52.512;13.448;2024-01-15T03:27:14;9.18;;;6.28;;
63218;SDS011;49320;52.512;13.448;2024-01-15T03:29:41;10.93;;;5.95;;
63218;SDS011;49320;52.512;13.448;2024-01-15T03:32:08;7.47;;;5.82;;
63218;SDS011;49320;52.512;13.448;2024-01-15T03:34:35;7.55;;;5.15;;
63218;SDS011;49320;52.512;13.448;2024-01-15T03:37:02;7.95;;;5.65;;
63218;SDS011;49320;52.512;13.448;2024-01-15T03:39:29;9.35;;;6.63;;
63218;SDS011;49320;52.512;13.448;2024-01-15T03:41:58;7.85;;;5.40;;
63218;SDS011;49320;52.512;13.448;2024-01-15T03:44:24;8.27;;;6.63;;
63218;SDS011;49320;52.512;13.448;2024-01-15T03:46:51;8.35;;;5.47;;
63218;SDS011;49320;52.512;13.448;2024-01-15T03:49:18;8.00;;;5.45;;
63218;SDS011;49320;52.512;13.448;2024-01-15T03:51:45;8.13;;;5.13;;
63218;SDS011;49320;52.512;13.448;2024-01-15T03:54:12;5.75;;;4.82;;
63218;SDS011;49320;52.512;13.448;2024-01-15T03:56:41;7.15;;;4.47;;
63218;SDS011;49320;52.512;13.448;2024-01-15T03:59:08;7.82;;;5.30;;
63218;SDS011;49320;52.512;13.448;2024-01-15T04:01:35;7.05;;;5.05;;
63218;SDS011;49320;52.512;13.448;2024-01-15T04:04:02;8.38;;;5.30;;
63218;SDS011;49320;52.512;13.448;2024-01-15T04:06:29;6.53;;;4.60;;
63218;SDS011;49320;52.512;13.448;2024-01-15T04:08:55;7.47;;;5.03;;
63218;SDS011;49320;52.512;13.448;2024-01-15T04:11:22;9.10;;;5.85;;
63218;SDS011;49320;52.512;13.448;2024-01-15T04:13:49;7.35;;;5.07;;
63218;SDS011;49320;52.512;13.448;2024-01-15T04:16:16;7.32;;;4.93;;
63218;SDS011;49320;52.512;13.448;2024-01-15T04:18:43;10.02;;;5.18;;
63218;SDS011;49320;52.512;13.448;2024-01-15T04:21:10;9.18;;;5.25;;
63218;SDS011;49320;52.512;13.448;2024-01-15T04:23:38;6.57;;;4.60;;
63218;SDS011;49320;52.512;13.448;2024-01-15T04:26:05;6.85;;;4.50;;
63218;SDS011;49320;52.512;13.448;2024-01-15T04:28:32;8.57;;;5.05;;
63218;SDS011;49320;52.512;13.448;2024-01-15T04:30:59;6.70;;;4.60;;
63218;SDS011;49320;52.512;13.448;2024-01-15T04:33:26;10.00;;;5.70;;
63218;SDS011;49320;52.512;13.448;2024-01-15T04:35:53;9.30;;;4.50;;
63218;SDS011;49320;52.512;13.448;2024-01-15T04:38:20;7.25;;;4.25;;
63218;SDS011;49320;52.512;13.448;2024-01-15T04:40:46;7.82;;;4.35;;
63218;SDS011;49320;52.512;13.448;2024-01-15T04:43:13;6.72;;;4.22;;
63218;SDS011;49320;52.512;13.448;2024-01-15T04:45:40;9.27;;;4.28;;
63218;SDS011;49320;52.512;13.448;2024-01-15T04:48:08;7.43;;;3.95;;
63218;SDS011;49320;52.512;13.448;2024-01-15T04:50:35;5.45;;;3.78;;
63218;SDS011;49320;52.512;13.448;2024-01-15T04:53:02;8.35;;;4.85;;
63218;SDS011;49320;52.512;13.448;2024-01-15T04:55:29;6.18;;;3.75;;
63218;SDS011;49320;52.512;13.448;2024-01-15T04:57:55;6.70;;;3.30;;
63218;SDS011;49320;52.512;13.448;2024-01-15T05:00:22;6.63;;;4.00;;
63218;SDS011;49320;52.512;13.448;2024-01-15T05:02:49;9.13;;;4.13;;
63218;SDS011;49320;52.512;13.448;2024-01-15T05:05:16;6.97;;;3.65;;
63218;SDS011;49320;52.512;13.448;2024-01-15T05:07:43;5.80;;;3.30;;
63218;SDS011;49320;52.512;13.448;2024-01-15T05:10:10;5.95;;;3.17;;
63218;SDS011;49320;52.512;13.448;2024-01-15T05:12:36;8.13;;;3.45;;
63218;SDS011;49320;52.512;13.448;2024-01-15T05:15:04;5.93;;;3.03;;
63218;SDS011;49320;52.512;13.448;2024-01-15T05:17:31;4.38;;;2.88;;
63218;SDS011;49320;52.512;13.448;2024-01-15T05:19:58;4.82;;;2.90;;
63218;SDS011;49320;52.512;13.448;2024-01-15T05:22:26;4.57;;;2.67;;
63218;SDS011;49320;52.512;13.448;2024-01-15T05:24:52;8.63;;;4.13;;
63218;SDS011;49320;52.512;13.448;2024-01-15T05:27:19;6.35;;;2.95;;
63218;SDS011;49320;52.512;13.448;2024-01-15T05:29:46;11.50;;;3.95;;
63218;SDS011;49320;52.512;13.448;2024-01-15T05:32:13;3.92;;;2.33;;
63218;SDS011;49320;52.512;13.448;2024-01-15T05:34:40;5.43;;;2.08;;
63218;SDS011;49320;52.512;13.448;2024-01-15T05:37:07;4.88;;;2.78;;
63218;SDS011;49320;52.512;13.448;2024-01-15T05:39:33;4.72;;;2.40;;
63218;SDS011;49320;52.512;13.448;2024-01-15T05:42:00;5.20;;;2.65;;
63218;SDS011;49320;52.512;13.448;2024-01-15T05:44:27;5.90;;;2.28;;
63218;SDS011;49320;52.512;13.448;2024-01-15T05:46:54;5.15;;;2.38;;
63218;SDS011;49320;52.512;13.448;2024-01-15T05:49:21;6.72;;;2.38;;
63218;SDS011;49320;52.512;13.448;2024-01-15T05:51:48;6.97;;;2.45;;
63218;SDS011;49320;52.512;13.448;2024-01-15T05:54:16;4.53;;;2.20;;
63218;SDS011;49320;52.512;13.448;2024-01-15T05:56:46;6.50;;;2.30;;
63218;SDS011;49320;52.512;13.448;2024-01-15T05:59:12;5.80;;;2.58;;
63218;SDS011;49320;52.512;13.448;2024-01-15T06:01:41;7.93;;;2.58;;
63218;SDS011;49320;52.512;13.448;2024-01-15T06:04:08;5.45;;;2.45;;
63218;SDS011;49320;52.512;13.448;2024-01-15T06:06:35;5.88;;;2.28;;
63218;SDS011;49320;52.512;13.448;2024-01-15T06:09:02;6.78;;;2.35;;
63218;SDS011;49320;52.512;13.448;2024-01-15T06:11:31;4.85;;;2.25;;
63218;SDS011;49320;52.512;13.448;2024-01-15T06:13:59;6.43;;;2.20;;
63218;SDS011;49320;52.512;13.448;2024-01-15T06:16:29;6.13;;;2.38;;
63218;SDS011;49320;52.512;13.448;2024-01-15T06:18:55;8.43;;;2.90;;
63218;SDS011;49320;52.512;13.448;2024-01-15T06:21:22;6.80;;;2.22;;
63218;SDS011;49320;52.512;13.448;2024-01-15T06:23:49;5.75;;;2.22;;
63218;SDS011;49320;52.512;13.448;2024-01-15T06:26:16;3.47;;;1.73;;
63218;SDS011;49320;52.512;13.448;2024-01-15T06:28:43;4.57;;;2.25;;
63218;SDS011;49320;52.512;13.448;2024-01-15T06:31:10;6.32;;;2.75;;
63218;SDS011;49320;52.512;13.448;2024-01-15T06:33:37;4.63;;;2.65;;
63218;SDS011;49320;52.512;13.448;2024-01-15T06:36:05;4.13;;;2.08;;
63218;SDS011;49320;52.512;13.448;2024-01-15T06:38:33;7.65;;;2.20;;
63218;SDS011;49320;52.512;13.448;2024-01-15T06:41:00;7.25;;;1.80;;
63218;SDS011;49320;52.512;13.448;2024-01-15T06:43:27;5.68;;;2.00;;
63218;SDS011;49320;52.512;13.448;2024-01-15T06:45:54;4.78;;;2.10;;
63218;SDS011;49320;52.512;13.448;2024-01-15T06:48:21;7.18;;;1.92;;
63218;SDS011;49320;52.512;13.448;2024-01-15T06:50:48;6.18;;;2.65;;
63218;SDS011;49320;52.512;13.448;2024-01-15T06:53:15;7.20;;;2.10;;
63218;SDS011;49320;52.512;13.448;2024-01-15T06:55:42;4.35;;;2.00;;
63218;SDS011;49320;52.512;13.448;2024-01-15T06:58:09;5.03;;;1.90;;
63218;SDS011;49320;52.512;13.448;2024-01-15T07:00:36;7.93;;;2.15;;
63218;SDS011;49320;52.512;13.448;2024-01-15T07:03:04;5.47;;;2.20;;
63218;SDS011;49320;52.512;13.448;2024-01-15T07:05:31;4.57;;;1.70;;
63218;SDS011;49320;52.512;13.448;2024-01-15T07:07:58;4.78;;;1.88;;
63218;SDS011;49320;52.512;13.448;2024-01-15T07:10:25;3.83;;;2.17;;
63218;SDS011;49320;52.512;13.448;2024-01-15T07:12:52;6.43;;;1.98;;
63218;SDS011;49320;52.512;13.448;2024-01-15T07:15:20;4.82;;;1.80;;
63218;SDS011;49320;52.512;13.448;2024-01-15T07:17:46;3.95;;;1.83;;
63218;SDS011;49320;52.512;13.448;2024-01-15T07:20:13;4.97;;;1.73;;
63218;SDS011;49320;52.512;13.448;2024-01-15T07:22:40;5.72;;;1.77;;
63218;SDS011;49320;52.512;13.448;2024-01-15T07:25:07;5.38;;;1.75;;
63218;SDS011;49320;52.512;13.448;2024-01-15T07:27:34;4.60;;;1.70;;
63218;SDS011;49320;52.512;13.448;2024-01-15T07:30:01;4.72;;;1.60;;
63218;SDS011;49320;52.512;13.448;2024-01-15T07:32:30;9.15;;;2.33;;
63218;SDS011;49320;52.512;13.448;2024-01-15T07:34:57;8.80;;;2.90;;
63218;SDS011;49320;52.512;13.448;2024-01-15T07:37:25;6.70;;;2.28;;
63218;SDS011;49320;52.512;13.448;2024-01-15T07:39:52;6.78;;;2.00;;
63218;SDS011;49320;52.512;13.448;2024-01-15T07:42:19;4.13;;;1.83;;
63218;SDS011;49320;52.512;13.448;2024-01-15T07:44:46;5.72;;;2.15;;
63218;SDS011;49320;52.512;13.448;2024-01-15T07:47:13;3.95;;;1.48;;
63218;SDS011;49320;52.512;13.448;2024-01-15T07:49:40;5.50;;;1.50;;
63218;SDS011;49320;52.512;13.448;2024-01-15T07:52:07;7.35;;;2.10;;
63218;SDS011;49320;52.512;13.448;2024-01-15T07:54:34;5.05;;;1.75;;
63218;SDS011;49320;52.512;13.448;2024-01-15T07:57:01;4.78;;;1.52;;
63218;SDS011;49320;52.512;13.448;2024-01-15T07:59:31;5.57;;;1.95;;
63218;SDS011;49320;52.512;13.448;2024-01-15T08:01:59;4.65;;;1.65;;
63218;SDS011;49320;52.512;13.448;2024-01-15T08:04:26;7.65;;;1.67;;
63218;SDS011;49320;52.512;13.448;2024-01-15T08:06:54;5.53;;;1.67;;
63218;SDS011;49320;52.512;13.448;2024-01-15T08:09:21;6.97;;;2.00;;
63218;SDS011;49320;52.512;13.448;2024-01-15T08:11:48;5.10;;;1.80;;
63218;SDS011;49320;52.512;13.448;2024-01-15T08:14:15;6.00;;;2.28;;
63218;SDS011;49320;52.512;13.448;2024-01-15T08:16:42;6.43;;;1.88;;
63218;SDS011;49320;52.512;13.448;2024-01-15T08:19:10;4.43;;;1.52;;
63218;SDS011;49320;52.512;13.448;2024-01-15T08:21:37;8.35;;;1.98;;
63218;SDS011;49320;52.512;13.448;2024-01-15T08:24:04;5.38;;;1.92;;
63218;SDS011;49320;52.512;13.448;2024-01-15T08:26:31;5.72;;;2.80;;
63218;SDS011;49320;52.512;13.448;2024-01-15T08:28:58;5.05;;;1.42;;
63218;SDS011;49320;52.512;13.448;2024-01-15T08:31:25;7.13;;;1.85;;
63218;SDS011;49320;52.512;13.448;2024-01-15T08:33:54;6.60;;;2.20;;
63218;SDS011;49320;52.512;13.448;2024-01-15T08:36:22;8.85;;;2.20;;
63218;SDS011;49320;52.512;13.448;2024-01-15T08:38:51;3.92;;;1.55;;
63218;SDS011;49320;52.512;13.448;2024-01-15T08:41:17;6.70;;;2.33;;
63218;SDS011;49320;52.512;13.448;2024-01-15T08:43:44;3.90;;;1.23;;
63218;SDS011;49320;52.512;13.448;2024-01-15T08:46:11;4.85;;;1.98;;
63218;SDS011;49320;52.512;13.448;2024-01-15T08:48:38;6.72;;;2.08;;
63218;SDS011;49320;52.512;13.448;2024-01-15T08:51:06;4.57;;;1.90;;
63218;SDS011;49320;52.512;13.448;2024-01-15T08:53:34;4.15;;;1.88;;
63218;SDS011;49320;52.512;13.448;2024-01-15T08:56:01;7.50;;;1.90;;
63218;SDS011;49320;52.512;13.448;2024-01-15T08:58:29;5.43;;;1.40;;
63218;SDS011;49320;52.512;13.448;2024-01-15T09:00:56;5.30;;;1.88;;
63218;SDS011;49320;52.512;13.448;2024-01-15T09:03:23;3.03;;;1.55;;
63218;SDS011;49320;52.512;13.448;2024-01-15T09:05:50;4.22;;;1.95;;
63218;SDS011;49320;52.512;13.448;2024-01-15T09:08:17;5.28;;;1.85;;
63218;SDS011;49320;52.512;13.448;2024-01-15T09:10:45;8.55;;;2.30;;
63218;SDS011;49320;52.512;13.448;2024-01-15T09:13:13;3.80;;;1.73;;
63218;SDS011;49320;52.512;13.448;2024-01-15T09:15:39;3.83;;;1.40;;
63218;SDS011;49320;52.512;13.448;2024-01-15T09:18:06;4.75;;;1.58;;
63218;SDS011;49320;52.512;13.448;2024-01-15T09:20:34;6.10;;;1.98;;
63218;SDS011;49320;52.512;13.448;2024-01-15T09:23:02;7.95;;;1.98;;
63218;SDS011;49320;52.512;13.448;2024-01-15T09:25:29;4.60;;;1.58;;
63218;SDS011;49320;52.512;13.448;2024-01-15T09:27:56;4.80;;;2.10;;
63218;SDS011;49320;52.512;13.448;2024-01-15T09:30:23;5.13;;;2.47;;
63218;SDS011;49320;52.512;13.448;2024-01-15T09:32:51;6.53;;;2.47;;
63218;SDS011;49320;52.512;13.448;2024-01-15T09:35:18;5.60;;;2.10;;
63218;SDS011;49320;52.512;13.448;2024-01-15T09:37:49;5.80;;;2.45;;
63218;SDS011;49320;52.512;13.448;2024-01-15T09:40:16;6.38;;;2.05;;
63218;SDS011;49320;52.512;13.448;2024-01-15T09:42:46;3.08;;;1.40;;
63218;SDS011;49320;52.512;13.448;2024-01-15T09:45:14;4.55;;;1.58;;
63218;SDS011;49320;52.512;13.448;2024-01-15T09:47:41;6.03;;;1.80;;
63218;SDS011;49320;52.512;13.448;2024-01-15T09:50:12;4.43;;;1.60;;
63218;SDS011;49320;52.512;13.448;2024-01-15T09:52:41;5.80;;;2.25;;
63218;SDS011;49320;52.512;13.448;2024-01-15T09:55:11;5.47;;;1.75;;
63218;SDS011;49320;52.512;13.448;2024-01-15T09:57:40;5.28;;;1.92;;
63218;SDS011;49320;52.512;13.448;2024-01-15T10:00:08;6.25;;;1.88;;
63218;SDS011;49320;52.512;13.448;2024-01-15T10:02:37;4.30;;;1.63;;
63218;SDS011;49320;52.512;13.448;2024-01-15T10:05:06;5.13;;;1.52;;
63218;SDS011;49320;52.512;13.448;2024-01-15T10:07:35;4.38;;;1.40;;
63218;SDS011;49320;52.512;13.448;2024-01-15T10:10:04;3.00;;;1.30;;
63218;SDS011;49320;52.512;13.448;2024-01-15T10:12:32;3.97;;;1.67;;
63218;SDS011;49320;52.512;13.448;2024-01-15T10:15:00;6.60;;;1.77;;
63218;SDS011;49320;52.512;13.448;2024-01-15T10:17:27;4.35;;;1.70;;
63218;SDS011;49320;52.512;13.448;2024-01-15T10:19:55;2.42;;;1.00;;
63218;SDS011;49320;52.512;13.448;2024-01-15T10:22:23;4.97;;;2.00;;
63218;SDS011;49320;52.512;13.448;2024-01-15T10:24:51;3.45;;;1.50;;
63218;SDS011;49320;52.512;13.448;2024-01-15T10:27:18;5.25;;;1.67;;
63218;SDS011;49320;52.512;13.448;2024-01-15T10:29:45;2.75;;;1.50;;
63218;SDS011;49320;52.512;13.448;2024-01-15T10:32:11;4.88;;;1.55;;
63218;SDS011;49320;52.512;13.448;2024-01-15T10:34:39;4.90;;;1.50;;
63218;SDS011;49320;52.512;13.448;2024-01-15T10:37:08;2.10;;;1.30;;
63218;SDS011;49320;52.512;13.448;2024-01-15T10:39:36;3.80;;;1.23;;
63218;SDS011;49320;52.512;13.448;2024-01-15T10:42:04;3.92;;;1.85;;
63218;SDS011;49320;52.512;13.448;2024-01-15T10:44:33;4.60;;;1.60;;
63218;SDS011;49320;52.512;13.448;2024-01-15T10:47:01;5.07;;;1.60;;
63218;SDS011;49320;52.512;13.448;2024-01-15T10:49:30;2.35;;;1.58;;
63218;SDS011;49320;52.512;13.448;2024-01-15T10:52:00;3.92;;;1.50;;
63218;SDS011;49320;52.512;13.448;2024-01-15T10:54:32;3.60;;;1.40;;
63218;SDS011;49320;52.512;13.448;2024-01-15T10:57:00;4.90;;;1.45;;
63218;SDS011;49320;52.512;13.448;2024-01-15T10:59:28;2.22;;;1.48;;
63218;SDS011;49320;52.512;13.448;2024-01-15T11:01:55;3.75;;;1.60;;
63218;SDS011;49320;52.512;13.448;2024-01-15T11:04:23;3.83;;;1.25;;
63218;SDS011;49320;52.512;13.448;2024-01-15T11:06:55;3.72;;;1.20;;
63218;SDS011;49320;52.512;13.448;2024-01-15T11:09:23;3.30;;;1.40;;
63218;SDS011;49320;52.512;13.448;2024-01-15T11:11:52;4.65;;;1.55;;
63218;SDS011;49320;52.512;13.448;2024-01-15T11:14:40;4.82;;;1.70;;
63218;SDS011;49320;52.512;13.448;2024-01-15T11:17:10;2.22;;;1.23;;
63218;SDS011;49320;52.512;13.448;2024-01-15T11:19:50;2.45;;;1.20;;
63218;SDS011;49320;52.512;13.448;2024-01-15T11:25:05;2.50;;;1.13;;
63218;SDS011;49320;52.512;13.448;2024-01-15T11:27:41;1.85;;;1.17;;
63218;SDS011;49320;52.512;13.448;2024-01-15T11:30:20;2.47;;;1.15;;
63218;SDS011;49320;52.512;13.448;2024-01-15T11:32:52;2.42;;;1.67;;
63218;SDS011;49320;52.512;13.448;2024-01-15T11:35:20;1.52;;;1.00;;
63218;SDS011;49320;52.512;13.448;2024-01-15T11:40:36;1.55;;;1.10;;
63218;SDS011;49320;52.512;13.448;2024-01-15T11:43:05;2.13;;;1.05;;
63218;SDS011;49320;52.512;13.448;2024-01-15T11:45:33;2.72;;;1.20;;
63218;SDS011;49320;52.512;13.448;2024-01-15T11:48:14;2.58;;;1.38;;
63218;SDS011;49320;52.512;13.448;2024-01-15T11:50:44;3.55;;;1.25;;
63218;SDS011;49320;52.512;13.448;2024-01-15T11:53:36;2.90;;;1.17;;
63218;SDS011;49320;52.512;13.448;2024-01-15T11:56:17;1.20;;;0.90;;
63218;SDS011;49320;52.512;13.448;2024-01-15T11:58:48;3.75;;;1.77;;
63218;SDS011;49320;52.512;13.448;2024-01-15T12:01:17;2.20;;;1.20;;
63218;SDS011;49320;52.512;13.448;2024-01-15T12:03:46;2.03;;;1.20;;
63218;SDS011;49320;52.512;13.448;2024-01-15T12:06:14;2.80;;;1.50;;
63218;SDS011;49320;52.512;13.448;2024-01-15T12:08:41;2.92;;;1.40;;
63218;SDS011;49320;52.512;13.448;2024-01-15T12:11:10;2.42;;;1.83;;
63218;SDS011;49320;52.512;13.448;2024-01-15T12:13:43;3.10;;;1.63;;
63218;SDS011;49320;52.512;13.448;2024-01-15T12:16:10;3.28;;;1.55;;
63218;SDS011;49320;52.512;13.448;2024-01-15T12:18:38;2.17;;;1.50;;
63218;SDS011;49320;52.512;13.448;2024-01-15T12:21:07;1.60;;;1.10;;
63218;SDS011;49320;52.512;13.448;2024-01-15T12:23:36;3.17;;;1.50;;
63218;SDS011;49320;52.512;13.448;2024-01-15T12:26:03;2.15;;;1.30;;
63218;SDS011;49320;52.512;13.448;2024-01-15T12:28:30;2.30;;;1.60;;
63218;SDS011;49320;52.512;13.448;2024-01-15T12:30:57;2.75;;;2.13;;
63218;SDS011;49320;52.512;13.448;2024-01-15T12:33:27;2.10;;;1.30;;
63218;SDS011;49320;52.512;13.448;2024-01-15T12:35:54;4.38;;;1.50;;
63218;SDS011;49320;52.512;13.448;2024-01-15T12:38:21;2.80;;;1.63;;
63218;SDS011;49320;52.512;13.448;2024-01-15T12:40:48;1.63;;;1.17;;
63218;SDS011;49320;52.512;13.448;2024-01-15T12:43:16;2.30;;;1.40;;
63218;SDS011;49320;52.512;13.448;2024-01-15T12:45:44;1.63;;;1.30;;
63218;SDS011;49320;52.512;13.448;2024-01-15T12:48:11;2.15;;;1.33;;
63218;SDS011;49320;52.512;13.448;2024-01-15T12:50:42;2.78;;;1.55;;
63218;SDS011;49320;52.512;13.448;2024-01-15T12:53:10;3.92;;;1.40;;
63218;SDS011;49320;52.512;13.448;2024-01-15T12:55:37;2.17;;;1.20;;
63218;SDS011;49320;52.512;13.448;2024-01-15T12:58:03;2.47;;;1.40;;
63218;SDS011;49320;52.512;13.448;2024-01-15T13:00:30;1.25;;;1.05;;
63218;SDS011;49320;52.512;13.448;2024-01-15T13:02:58;1.90;;;1.35;;
63218;SDS011;49320;52.512;13.448;2024-01-15T13:05:26;2.22;;;1.30;;
63218;SDS011;49320;52.512;13.448;2024-01-15T13:07:56;2.17;;;1.60;;
63218;SDS011;49320;52.512;13.448;2024-01-15T13:10:23;1.83;;;1.15;;
63218;SDS011;49320;52.512;13.448;2024-01-15T13:12:52;1.38;;;1.00;;
63218;SDS011;49320;52.512;13.448;2024-01-15T13:15:18;3.38;;;1.40;;
63218;SDS011;49320;52.512;13.448;2024-01-15T13:17:45;1.38;;;1.20;;
63218;SDS011;49320;52.512;13.448;2024-01-15T13:20:12;7.75;;;2.90;;
63218;SDS011;49320;52.512;13.448;2024-01-15T13:22:40;2.15;;;1.27;;
63218;SDS011;49320;52.512;13.448;2024-01-15T13:25:10;3.25;;;2.00;;
63218;SDS011;49320;52.512;13.448;2024-01-15T13:27:38;2.22;;;1.25;;
63218;SDS011;49320;52.512;13.448;2024-01-15T13:30:08;1.50;;;1.27;;
63218;SDS011;49320;52.512;13.448;2024-01-15T13:32:36;3.80;;;1.60;;
63218;SDS011;49320;52.512;13.448;2024-01-15T13:35:04;1.98;;;1.42;;
63218;SDS011;49320;52.512;13.448;2024-01-15T13:37:34;2.15;;;1.48;;
63218;SDS011;49320;52.512;13.448;2024-01-15T13:40:00;2.33;;;1.58;;
63218;SDS011;49320;52.512;13.448;2024-01-15T13:42:27;3.30;;;1.48;;
63218;SDS011;49320;52.512;13.448;2024-01-15T13:44:54;3.47;;;1.52;;
63218;SDS011;49320;52.512;13.448;2024-01-15T13:47:21;2.28;;;1.30;;
63218;SDS011;49320;52.512;13.448;2024-01-15T13:49:48;2.00;;;1.17;;
63218;SDS011;49320;52.512;13.448;2024-01-15T13:52:15;2.97;;;1.25;;
63218;SDS011;49320;52.512;13.448;2024-01-15T13:54:42;1.70;;;1.40;;
63218;SDS011;49320;52.512;13.448;2024-01-15T13:57:16;1.65;;;1.30;;
63218;SDS011;49320;52.512;13.448;2024-01-15T13:59:45;2.13;;;1.30;;
63218;SDS011;49320;52.512;13.448;2024-01-15T14:02:12;2.38;;;1.33;;
63218;SDS011;49320;52.512;13.448;2024-01-15T14:04:45;2.45;;;1.10;;
63218;SDS011;49320;52.512;13.448;2024-01-15T14:07:13;2.42;;;1.35;;
63218;SDS011;49320;52.512;13.448;2024-01-15T14:09:40;4.50;;;1.60;;
63218;SDS011;49320;52.512;13.448;2024-01-15T14:12:07;4.32;;;1.80;;
63218;SDS011;49320;52.512;13.448;2024-01-15T14:14:33;3.53;;;1.58;;
63218;SDS011;49320;52.512;13.448;2024-01-15T14:17:00;4.85;;;1.55;;
63218;SDS011;49320;52.512;13.448;2024-01-15T14:19:27;3.60;;;1.40;;
63218;SDS011;49320;52.512;13.448;2024-01-15T14:21:55;4.05;;;1.52;;
63218;SDS011;49320;52.512;13.448;2024-01-15T14:24:22;4.30;;;1.50;;
63218;SDS011;49320;52.512;13.448;2024-01-15T14:26:49;3.35;;;1.40;;
63218;SDS011;49320;52.512;13.448;2024-01-15T14:29:16;2.40;;;1.27;;
63218;SDS011;49320;52.512;13.448;2024-01-15T14:31:46;3.30;;;1.42;;
63218;SDS011;49320;52.512;13.448;2024-01-15T14:34:13;2.72;;;1.27;;
63218;SDS011;49320;52.512;13.448;2024-01-15T14:36:40;2.38;;;1.48;;
63218;SDS011;49320;52.512;13.448;2024-01-15T14:39:07;4.95;;;2.30;;
63218;SDS011;49320;52.512;13.448;2024-01-15T14:41:35;4.25;;;1.63;;